Crystal Lake, Illinois
Current Conditions -  °F | °C
As of 4:49 AM on Saturday 25 Oct 2014 (Local Time) from KDPA Reporting Station
Haze Haze  
Wind Chill: 57°   Ceiling: 400
Heat Index: 57°   Visibility: 4mi
Dew Point: 55°   Wind: 8mph
Humidity: 94%   Direction: 290°WNW
Pressure: 29.91"   Gusts: NA
Location:  42.25°N, 88.32°W
Report Text: KDPA 250949Z 29007KT 4SM BR OVC004 14/13 A2991 RMK AO2
Loading
Personal Weather Stations






























Interactive Weather Map
Tropical Storm Tracking
New forecast layout! Learn more

10-Day Weather Forecast

Advertisements
Track Severe Weather on mobile